sensor_id;sensor_type;location;lat;lon;timestamp;pressure;altitude;pressure_sealevel;temperature;humidity
5966;BME280;3009;43.224;27.976;2023-03-14T00:01:22;100938.44;;;1.31;97.85
5966;BME280;3009;43.224;27.976;2023-03-14T00:03:51;100930.28;;;1.32;98.21
5966;BME280;3009;43.224;27.976;2023-03-14T00:06:21;100928.31;;;1.39;98.38
5966;BME280;3009;43.224;27.976;2023-03-14T00:08:53;100924.41;;;1.42;98.08
5966;BME280;3009;43.224;27.976;2023-03-14T00:11:22;100922.25;;;1.39;98.15
5966;BME280;3009;43.224;27.976;2023-03-14T00:13:51;100927.53;;;1.39;98.47
5966;BME280;3009;43.224;27.976;2023-03-14T00:16:20;100918.44;;;1.47;98.22
5966;BME280;3009;43.224;27.976;2023-03-14T00:18:50;100917.03;;;1.44;97.75
5966;BME280;3009;43.224;27.976;2023-03-14T00:21:19;100913.16;;;1.35;97.90
5966;BME280;3009;43.224;27.976;2023-03-14T00:23:48;100910.75;;;1.33;98.25
5966;BME280;3009;43.224;27.976;2023-03-14T00:26:25;100909.97;;;1.09;98.89
5966;BME280;3009;43.224;27.976;2023-03-14T00:28:55;100903.44;;;1.00;99.72
5966;BME280;3009;43.224;27.976;2023-03-14T00:31:28;100905.03;;;0.89;100.00
5966;BME280;3009;43.224;27.976;2023-03-14T00:33:57;100896.69;;;0.80;100.00
5966;BME280;3009;43.224;27.976;2023-03-14T00:36:26;100881.41;;;0.82;100.00
5966;BME280;3009;43.224;27.976;2023-03-14T00:38:56;100883.25;;;0.82;100.00
5966;BME280;3009;43.224;27.976;2023-03-14T00:41:29;100880.38;;;0.83;100.00
5966;BME280;3009;43.224;27.976;2023-03-14T00:43:58;100862.47;;;0.85;100.00
5966;BME280;3009;43.224;27.976;2023-03-14T00:46:27;100857.41;;;0.84;100.00
5966;BME280;3009;43.224;27.976;2023-03-14T00:48:58;100866.72;;;0.86;100.00
5966;BME280;3009;43.224;27.976;2023-03-14T00:51:28;100863.25;;;0.86;100.00
5966;BME280;3009;43.224;27.976;2023-03-14T00:53:57;100861.91;;;0.83;100.00
5966;BME280;3009;43.224;27.976;2023-03-14T00:56:26;100869.91;;;0.88;100.00
5966;BME280;3009;43.224;27.976;2023-03-14T00:58:58;100860.38;;;0.87;100.00
5966;BME280;3009;43.224;27.976;2023-03-14T01:01:28;100865.78;;;0.93;100.00
5966;BME280;3009;43.224;27.976;2023-03-14T01:04:01;100853.06;;;0.90;100.00
5966;BME280;3009;43.224;27.976;2023-03-14T01:06:31;100849.50;;;0.96;100.00
5966;BME280;3009;43.224;27.976;2023-03-14T01:09:00;100849.25;;;0.97;100.00
5966;BME280;3009;43.224;27.976;2023-03-14T01:11:31;100845.91;;;1.02;100.00
5966;BME280;3009;43.224;27.976;2023-03-14T01:14:03;100838.91;;;1.08;100.00
5966;BME280;3009;43.224;27.976;2023-03-14T01:16:34;100844.88;;;1.15;100.00
5966;BME280;3009;43.224;27.976;2023-03-14T01:19:03;100838.31;;;1.17;100.00
5966;BME280;3009;43.224;27.976;2023-03-14T01:21:33;100844.16;;;1.19;100.00
5966;BME280;3009;43.224;27.976;2023-03-14T01:24:04;100845.19;;;1.18;100.00
5966;BME280;3009;43.224;27.976;2023-03-14T01:26:34;100849.88;;;1.28;100.00
5966;BME280;3009;43.224;27.976;2023-03-14T01:29:04;100846.06;;;1.36;100.00
5966;BME280;3009;43.224;27.976;2023-03-14T01:31:32;100835.97;;;1.33;99.84
5966;BME280;3009;43.224;27.976;2023-03-14T01:34:01;100839.06;;;1.30;99.87
5966;BME280;3009;43.224;27.976;2023-03-14T01:36:30;100833.91;;;1.35;99.92
5966;BME280;3009;43.224;27.976;2023-03-14T01:38:59;100838.72;;;1.38;99.58
5966;BME280;3009;43.224;27.976;2023-03-14T01:41:27;100831.72;;;1.32;99.29
5966;BME280;3009;43.224;27.976;2023-03-14T01:43:56;100839.88;;;1.30;99.13
5966;BME280;3009;43.224;27.976;2023-03-14T01:46:35;100844.13;;;1.31;99.50
5966;BME280;3009;43.224;27.976;2023-03-14T01:49:13;100843.88;;;1.33;99.69
5966;BME280;3009;43.224;27.976;2023-03-14T01:51:48;100852.16;;;1.36;99.74
5966;BME280;3009;43.224;27.976;2023-03-14T01:54:20;100848.81;;;1.41;99.83
5966;BME280;3009;43.224;27.976;2023-03-14T01:56:53;100843.06;;;1.44;99.43
5966;BME280;3009;43.224;27.976;2023-03-14T01:59:23;100842.03;;;1.45;99.38
5966;BME280;3009;43.224;27.976;2023-03-14T02:01:54;100844.94;;;1.32;99.13
5966;BME280;3009;43.224;27.976;2023-03-14T02:04:24;100843.41;;;1.36;99.89
5966;BME280;3009;43.224;27.976;2023-03-14T02:06:59;100848.47;;;1.37;100.00
5966;BME280;3009;43.224;27.976;2023-03-14T02:09:30;100845.38;;;1.40;100.00
5966;BME280;3009;43.224;27.976;2023-03-14T02:11:59;100848.34;;;1.44;100.00
5966;BME280;3009;43.224;27.976;2023-03-14T02:14:31;100836.41;;;1.41;99.97
5966;BME280;3009;43.224;27.976;2023-03-14T02:17:03;100834.50;;;1.25;99.76
5966;BME280;3009;43.224;27.976;2023-03-14T02:19:55;100829.13;;;1.20;100.00
5966;BME280;3009;43.224;27.976;2023-03-14T02:22:28;100825.53;;;1.26;100.00
5966;BME280;3009;43.224;27.976;2023-03-14T02:25:04;100832.28;;;1.34;100.00
5966;BME280;3009;43.224;27.976;2023-03-14T02:27:36;100843.19;;;1.37;100.00
5966;BME280;3009;43.224;27.976;2023-03-14T02:30:10;100837.09;;;1.37;100.00
5966;BME280;3009;43.224;27.976;2023-03-14T02:32:41;100840.69;;;1.31;100.00
5966;BME280;3009;43.224;27.976;2023-03-14T02:35:15;100851.94;;;1.26;100.00
5966;BME280;3009;43.224;27.976;2023-03-14T02:37:49;100851.81;;;1.33;100.00
5966;BME280;3009;43.224;27.976;2023-03-14T02:40:19;100845.97;;;1.31;100.00
5966;BME280;3009;43.224;27.976;2023-03-14T02:42:49;100850.91;;;1.39;100.00
5966;BME280;3009;43.224;27.976;2023-03-14T02:48:15;100853.94;;;1.48;100.00
5966;BME280;3009;43.224;27.976;2023-03-14T02:50:45;100848.03;;;1.40;100.00
5966;BME280;3009;43.224;27.976;2023-03-14T02:53:17;100854.66;;;1.43;100.00
5966;BME280;3009;43.224;27.976;2023-03-14T02:55:47;100858.69;;;1.46;100.00
5966;BME280;3009;43.224;27.976;2023-03-14T02:58:18;100860.06;;;1.48;100.00
5966;BME280;3009;43.224;27.976;2023-03-14T03:00:47;100857.44;;;1.36;100.00
5966;BME280;3009;43.224;27.976;2023-03-14T03:03:16;100855.97;;;1.29;100.00
5966;BME280;3009;43.224;27.976;2023-03-14T03:05:48;100855.91;;;1.00;100.00
5966;BME280;3009;43.224;27.976;2023-03-14T03:08:17;100850.06;;;0.98;100.00
5966;BME280;3009;43.224;27.976;2023-03-14T03:10:46;100853.59;;;1.03;100.00
5966;BME280;3009;43.224;27.976;2023-03-14T03:13:15;100849.16;;;0.92;100.00
5966;BME280;3009;43.224;27.976;2023-03-14T03:15:45;100845.59;;;0.63;100.00
5966;BME280;3009;43.224;27.976;2023-03-14T03:18:14;100847.53;;;0.56;100.00
5966;BME280;3009;43.224;27.976;2023-03-14T03:20:42;100841.25;;;0.57;100.00
5966;BME280;3009;43.224;27.976;2023-03-14T03:23:11;100838.59;;;0.57;100.00
5966;BME280;3009;43.224;27.976;2023-03-14T03:25:39;100836.19;;;0.55;100.00
5966;BME280;3009;43.224;27.976;2023-03-14T03:28:08;100826.78;;;0.47;100.00
5966;BME280;3009;43.224;27.976;2023-03-14T03:30:39;100826.91;;;0.52;100.00
5966;BME280;3009;43.224;27.976;2023-03-14T03:33:10;100825.63;;;0.79;100.00
5966;BME280;3009;43.224;27.976;2023-03-14T03:35:43;100829.75;;;0.86;100.00
5966;BME280;3009;43.224;27.976;2023-03-14T03:38:13;100829.84;;;0.92;100.00
5966;BME280;3009;43.224;27.976;2023-03-14T03:40:42;100829.38;;;0.95;100.00
5966;BME280;3009;43.224;27.976;2023-03-14T03:43:11;100822.06;;;0.85;100.00
5966;BME280;3009;43.224;27.976;2023-03-14T03:45:42;100814.03;;;0.68;100.00
5966;BME280;3009;43.224;27.976;2023-03-14T03:48:12;100814.63;;;0.58;100.00
5966;BME280;3009;43.224;27.976;2023-03-14T03:50:44;100810.59;;;0.56;100.00
5966;BME280;3009;43.224;27.976;2023-03-14T03:53:12;100812.22;;;0.57;100.00
5966;BME280;3009;43.224;27.976;2023-03-14T03:55:49;100813.59;;;0.47;100.00
5966;BME280;3009;43.224;27.976;2023-03-14T03:58:17;100818.97;;;0.41;100.00
5966;BME280;3009;43.224;27.976;2023-03-14T04:00:46;100820.13;;;0.33;100.00
5966;BME280;3009;43.224;27.976;2023-03-14T04:03:16;100823.34;;;0.35;100.00
5966;BME280;3009;43.224;27.976;2023-03-14T04:05:45;100822.75;;;0.33;100.00
5966;BME280;3009;43.224;27.976;2023-03-14T04:08:13;100823.34;;;0.35;100.00
5966;BME280;3009;43.224;27.976;2023-03-14T04:10:42;100820.00;;;0.28;100.00
5966;BME280;3009;43.224;27.976;2023-03-14T04:13:11;100826.53;;;0.25;100.00
5966;BME280;3009;43.224;27.976;2023-03-14T04:15:39;100813.59;;;0.24;100.00
5966;BME280;3009;43.224;27.976;2023-03-14T04:18:08;100820.69;;;0.23;100.00
5966;BME280;3009;43.224;27.976;2023-03-14T04:20:38;100819.22;;;0.27;100.00
5966;BME280;3009;43.224;27.976;2023-03-14T04:23:06;100817.47;;;0.33;100.00
5966;BME280;3009;43.224;27.976;2023-03-14T04:25:35;100812.66;;;0.30;100.00
5966;BME280;3009;43.224;27.976;2023-03-14T04:28:03;100811.75;;;0.36;100.00
5966;BME280;3009;43.224;27.976;2023-03-14T04:30:32;100809.34;;;0.34;100.00
5966;BME280;3009;43.224;27.976;2023-03-14T04:33:00;100807.06;;;0.38;100.00
5966;BME280;3009;43.224;27.976;2023-03-14T04:35:30;100804.44;;;0.38;100.00
5966;BME280;3009;43.224;27.976;2023-03-14T04:38:00;100805.47;;;0.49;100.00
5966;BME280;3009;43.224;27.976;2023-03-14T04:40:29;100799.03;;;0.68;100.00
5966;BME280;3009;43.224;27.976;2023-03-14T04:42:58;100809.44;;;0.75;100.00
5966;BME280;3009;43.224;27.976;2023-03-14T04:45:27;100808.41;;;0.76;100.00
5966;BME280;3009;43.224;27.976;2023-03-14T04:47:56;100810.59;;;0.91;100.00
5966;BME280;3009;43.224;27.976;2023-03-14T04:50:25;100807.28;;;1.24;100.00
5966;BME280;3009;43.224;27.976;2023-03-14T04:52:54;100815.59;;;1.45;100.00
5966;BME280;3009;43.224;27.976;2023-03-14T04:55:25;100813.00;;;1.62;100.00
5966;BME280;3009;43.224;27.976;2023-03-14T04:57:54;100813.56;;;1.81;100.00
5966;BME280;3009;43.224;27.976;2023-03-14T05:00:22;100817.38;;;2.02;100.00
5966;BME280;3009;43.224;27.976;2023-03-14T05:02:51;100812.97;;;2.25;100.00
5966;BME280;3009;43.224;27.976;2023-03-14T05:05:19;100808.38;;;2.54;100.00
5966;BME280;3009;43.224;27.976;2023-03-14T05:07:48;100805.28;;;2.79;100.00
5966;BME280;3009;43.224;27.976;2023-03-14T05:10:16;100803.59;;;2.95;100.00
5966;BME280;3009;43.224;27.976;2023-03-14T05:12:46;100796.47;;;3.18;100.00
5966;BME280;3009;43.224;27.976;2023-03-14T05:15:15;100801.00;;;4.04;100.00
5966;BME280;3009;43.224;27.976;2023-03-14T05:17:44;100800.34;;;5.36;92.87
5966;BME280;3009;43.224;27.976;2023-03-14T05:20:13;100799.09;;;5.59;86.27
5966;BME280;3009;43.224;27.976;2023-03-14T05:22:42;100807.28;;;5.42;84.24
5966;BME280;3009;43.224;27.976;2023-03-14T05:25:12;100806.44;;;5.26;84.46
5966;BME280;3009;43.224;27.976;2023-03-14T05:27:41;100809.84;;;5.16;84.78
5966;BME280;3009;43.224;27.976;2023-03-14T05:30:12;100810.09;;;5.04;84.81
5966;BME280;3009;43.224;27.976;2023-03-14T05:32:42;100808.44;;;4.93;84.75
5966;BME280;3009;43.224;27.976;2023-03-14T05:35:11;100810.59;;;5.01;84.70
5966;BME280;3009;43.224;27.976;2023-03-14T05:37:39;100807.72;;;5.08;83.94
5966;BME280;3009;43.224;27.976;2023-03-14T05:40:09;100806.94;;;5.18;84.02
5966;BME280;3009;43.224;27.976;2023-03-14T05:42:37;100811.22;;;5.24;83.42
5966;BME280;3009;43.224;27.976;2023-03-14T05:45:07;100810.56;;;5.80;82.65
5966;BME280;3009;43.224;27.976;2023-03-14T05:47:36;100813.81;;;7.09;77.00
5966;BME280;3009;43.224;27.976;2023-03-14T05:50:06;100811.09;;;8.04;70.44
5966;BME280;3009;43.224;27.976;2023-03-14T05:52:34;100808.34;;;8.14;66.95
5966;BME280;3009;43.224;27.976;2023-03-14T05:55:03;100812.84;;;8.53;66.52
5966;BME280;3009;43.224;27.976;2023-03-14T05:57:31;100811.78;;;8.97;63.08
5966;BME280;3009;43.224;27.976;2023-03-14T06:00:00;100810.09;;;9.45;61.22
5966;BME280;3009;43.224;27.976;2023-03-14T06:02:28;100805.16;;;9.90;59.44
5966;BME280;3009;43.224;27.976;2023-03-14T06:04:58;100807.88;;;9.71;59.32
5966;BME280;3009;43.224;27.976;2023-03-14T06:07:27;100812.88;;;10.43;57.89
5966;BME280;3009;43.224;27.976;2023-03-14T06:09:55;100809.91;;;10.26;57.32
5966;BME280;3009;43.224;27.976;2023-03-14T06:12:25;100813.28;;;10.64;55.08
5966;BME280;3009;43.224;27.976;2023-03-14T06:14:53;100815.25;;;11.01;53.83
5966;BME280;3009;43.224;27.976;2023-03-14T06:17:22;100807.31;;;10.54;53.70
5966;BME280;3009;43.224;27.976;2023-03-14T06:19:51;100811.78;;;10.86;54.37
5966;BME280;3009;43.224;27.976;2023-03-14T06:22:22;100812.00;;;11.40;53.73
5966;BME280;3009;43.224;27.976;2023-03-14T06:24:51;100821.19;;;11.62;52.15
5966;BME280;3009;43.224;27.976;2023-03-14T06:27:21;100811.09;;;12.35;50.29
5966;BME280;3009;43.224;27.976;2023-03-14T06:29:51;100821.31;;;12.56;48.17
5966;BME280;3009;43.224;27.976;2023-03-14T06:32:21;100818.13;;;13.03;47.83
5966;BME280;3009;43.224;27.976;2023-03-14T06:34:50;100823.03;;;12.20;48.64
5966;BME280;3009;43.224;27.976;2023-03-14T06:37:21;100819.22;;;12.44;48.76
5966;BME280;3009;43.224;27.976;2023-03-14T06:39:50;100805.50;;;12.23;49.23
5966;BME280;3009;43.224;27.976;2023-03-14T06:42:21;100801.91;;;11.82;50.72
5966;BME280;3009;43.224;27.976;2023-03-14T06:44:50;100806.59;;;11.54;51.27
5966;BME280;3009;43.224;27.976;2023-03-14T06:47:18;100812.03;;;11.85;50.42
5966;BME280;3009;43.224;27.976;2023-03-14T06:49:48;100803.19;;;11.85;50.49
5966;BME280;3009;43.224;27.976;2023-03-14T06:52:18;100798.81;;;11.30;51.48
5966;BME280;3009;43.224;27.976;2023-03-14T06:54:48;100800.09;;;9.88;54.63
5966;BME280;3009;43.224;27.976;2023-03-14T06:57:17;100793.81;;;9.60;57.34
5966;BME280;3009;43.224;27.976;2023-03-14T06:59:45;100788.19;;;9.04;58.81
5966;BME280;3009;43.224;27.976;2023-03-14T07:02:13;100787.03;;;8.38;61.74
5966;BME280;3009;43.224;27.976;2023-03-14T07:04:42;100787.94;;;7.94;65.72
5966;BME280;3009;43.224;27.976;2023-03-14T07:07:10;100781.41;;;7.76;66.00
5966;BME280;3009;43.224;27.976;2023-03-14T07:09:39;100791.09;;;7.67;66.26
5966;BME280;3009;43.224;27.976;2023-03-14T07:12:08;100794.22;;;7.34;68.57
5966;BME280;3009;43.224;27.976;2023-03-14T07:14:37;100797.19;;;7.27;69.51
5966;BME280;3009;43.224;27.976;2023-03-14T07:17:07;100796.78;;;7.00;70.26
5966;BME280;3009;43.224;27.976;2023-03-14T07:19:36;100791.81;;;6.78;70.93
5966;BME280;3009;43.224;27.976;2023-03-14T07:22:05;100785.72;;;6.67;71.97
5966;BME280;3009;43.224;27.976;2023-03-14T07:24:34;100779.28;;;6.78;73.37
5966;BME280;3009;43.224;27.976;2023-03-14T07:27:03;100788.84;;;6.89;73.64
5966;BME280;3009;43.224;27.976;2023-03-14T07:29:34;100785.09;;;6.85;72.77
5966;BME280;3009;43.224;27.976;2023-03-14T07:32:04;100777.91;;;6.96;72.44
5966;BME280;3009;43.224;27.976;2023-03-14T07:34:33;100781.94;;;6.88;72.35
5966;BME280;3009;43.224;27.976;2023-03-14T07:37:01;100778.47;;;6.78;72.37
5966;BME280;3009;43.224;27.976;2023-03-14T07:39:31;100777.19;;;6.75;73.21
5966;BME280;3009;43.224;27.976;2023-03-14T07:42:00;100769.22;;;6.60;73.30
5966;BME280;3009;43.224;27.976;2023-03-14T07:44:36;100781.19;;;6.67;74.21
5966;BME280;3009;43.224;27.976;2023-03-14T07:47:04;100773.16;;;6.78;73.68
5966;BME280;3009;43.224;27.976;2023-03-14T07:49:33;100774.97;;;6.92;73.48
5966;BME280;3009;43.224;27.976;2023-03-14T07:52:01;100771.19;;;6.99;72.68
5966;BME280;3009;43.224;27.976;2023-03-14T07:54:30;100769.13;;;6.90;72.72
5966;BME280;3009;43.224;27.976;2023-03-14T07:57:01;100769.13;;;6.90;73.47
5966;BME280;3009;43.224;27.976;2023-03-14T07:59:30;100774.41;;;7.01;73.21
5966;BME280;3009;43.224;27.976;2023-03-14T08:02:00;100773.53;;;7.10;72.81
5966;BME280;3009;43.224;27.976;2023-03-14T08:04:29;100771.66;;;7.16;72.80
5966;BME280;3009;43.224;27.976;2023-03-14T08:07:00;100767.88;;;7.22;72.64
5966;BME280;3009;43.224;27.976;2023-03-14T08:09:30;100767.66;;;7.19;72.63
5966;BME280;3009;43.224;27.976;2023-03-14T08:11:58;100765.78;;;7.19;72.74
5966;BME280;3009;43.224;27.976;2023-03-14T08:14:27;100755.41;;;7.13;73.18
5966;BME280;3009;43.224;27.976;2023-03-14T08:16:57;100758.91;;;7.03;72.84
5966;BME280;3009;43.224;27.976;2023-03-14T08:19:27;100753.44;;;7.28;72.77
5966;BME280;3009;43.224;27.976;2023-03-14T08:21:56;100744.72;;;7.18;73.45
5966;BME280;3009;43.224;27.976;2023-03-14T08:24:24;100745.78;;;7.17;73.58
5966;BME280;3009;43.224;27.976;2023-03-14T08:26:54;100753.63;;;6.98;74.04
5966;BME280;3009;43.224;27.976;2023-03-14T08:29:22;100744.47;;;7.14;74.28
5966;BME280;3009;43.224;27.976;2023-03-14T08:31:52;100745.63;;;7.42;75.25
5966;BME280;3009;43.224;27.976;2023-03-14T08:34:22;100749.81;;;7.54;73.18
5966;BME280;3009;43.224;27.976;2023-03-14T08:36:52;100748.16;;;7.63;73.39
5966;BME280;3009;43.224;27.976;2023-03-14T08:39:22;100745.81;;;7.56;72.67
5966;BME280;3009;43.224;27.976;2023-03-14T08:41:51;100751.59;;;7.69;72.76
5966;BME280;3009;43.224;27.976;2023-03-14T08:44:19;100749.34;;;7.81;71.59
5966;BME280;3009;43.224;27.976;2023-03-14T08:46:48;100741.69;;;7.69;72.27
5966;BME280;3009;43.224;27.976;2023-03-14T08:49:18;100729.59;;;7.82;73.55
5966;BME280;3009;43.224;27.976;2023-03-14T08:51:46;100731.72;;;7.80;73.04
5966;BME280;3009;43.224;27.976;2023-03-14T08:54:16;100732.34;;;7.72;72.63
5966;BME280;3009;43.224;27.976;2023-03-14T08:56:45;100723.13;;;7.88;71.52
5966;BME280;3009;43.224;27.976;2023-03-14T08:59:14;100721.03;;;7.80;73.37
5966;BME280;3009;43.224;27.976;2023-03-14T09:01:42;100719.13;;;7.86;72.94
5966;BME280;3009;43.224;27.976;2023-03-14T09:04:11;100722.41;;;7.43;73.74
5966;BME280;3009;43.224;27.976;2023-03-14T09:06:40;100726.72;;;7.39;75.09
5966;BME280;3009;43.224;27.976;2023-03-14T09:09:09;100716.91;;;7.63;74.66
5966;BME280;3009;43.224;27.976;2023-03-14T09:11:39;100715.38;;;7.57;74.59
5966;BME280;3009;43.224;27.976;2023-03-14T09:14:08;100702.97;;;7.72;74.80
5966;BME280;3009;43.224;27.976;2023-03-14T09:16:36;100695.75;;;7.72;74.16
5966;BME280;3009;43.224;27.976;2023-03-14T09:19:06;100700.69;;;7.55;76.34
5966;BME280;3009;43.224;27.976;2023-03-14T09:21:34;100701.72;;;7.64;77.01
5966;BME280;3009;43.224;27.976;2023-03-14T09:24:04;100695.56;;;7.29;77.84
5966;BME280;3009;43.224;27.976;2023-03-14T09:26:34;100696.94;;;7.61;77.84
5966;BME280;3009;43.224;27.976;2023-03-14T09:29:03;100697.88;;;7.75;78.85
5966;BME280;3009;43.224;27.976;2023-03-14T09:31:32;100688.53;;;7.73;78.44
5966;BME280;3009;43.224;27.976;2023-03-14T09:34:00;100682.34;;;7.48;79.50
5966;BME280;3009;43.224;27.976;2023-03-14T09:36:31;100683.16;;;7.78;79.18
5966;BME280;3009;43.224;27.976;2023-03-14T09:39:00;100681.28;;;7.78;77.37
5966;BME280;3009;43.224;27.976;2023-03-14T09:41:31;100679.38;;;7.84;78.24
5966;BME280;3009;43.224;27.976;2023-03-14T09:44:05;100675.59;;;7.61;77.88
5966;BME280;3009;43.224;27.976;2023-03-14T09:46:38;100685.78;;;7.83;77.67
5966;BME280;3009;43.224;27.976;2023-03-14T09:49:12;100685.03;;;7.77;76.24
5966;BME280;3009;43.224;27.976;2023-03-14T09:51:46;100671.97;;;7.76;78.12
5966;BME280;3009;43.224;27.976;2023-03-14T09:54:24;100673.59;;;8.01;77.27
5966;BME280;3009;43.224;27.976;2023-03-14T09:56:58;100668.25;;;8.01;75.05
5966;BME280;3009;43.224;27.976;2023-03-14T09:59:29;100663.38;;;8.08;74.87
5966;BME280;3009;43.224;27.976;2023-03-14T10:02:00;100662.03;;;8.11;75.45
5966;BME280;3009;43.224;27.976;2023-03-14T10:04:30;100666.63;;;7.76;74.41
5966;BME280;3009;43.224;27.976;2023-03-14T10:06:59;100661.75;;;7.83;75.10
5966;BME280;3009;43.224;27.976;2023-03-14T10:09:32;100665.06;;;7.70;75.42
5966;BME280;3009;43.224;27.976;2023-03-14T10:12:03;100655.44;;;7.74;76.00
5966;BME280;3009;43.224;27.976;2023-03-14T10:14:44;100652.75;;;7.79;76.06
5966;BME280;3009;43.224;27.976;2023-03-14T10:17:14;100655.63;;;7.83;75.77
5966;BME280;3009;43.224;27.976;2023-03-14T10:19:55;100650.00;;;7.84;76.38
5966;BME280;3009;43.224;27.976;2023-03-14T10:22:27;100643.22;;;7.68;76.15
5966;BME280;3009;43.224;27.976;2023-03-14T10:25:02;100642.84;;;7.79;77.39
5966;BME280;3009;43.224;27.976;2023-03-14T10:27:32;100635.63;;;7.80;76.13
5966;BME280;3009;43.224;27.976;2023-03-14T10:30:05;100625.91;;;7.89;75.68
5966;BME280;3009;43.224;27.976;2023-03-14T10:32:36;100627.69;;;7.75;75.96
5966;BME280;3009;43.224;27.976;2023-03-14T10:35:19;100621.09;;;7.91;76.97
5966;BME280;3009;43.224;27.976;2023-03-14T10:37:51;100620.47;;;7.75;75.30
5966;BME280;3009;43.224;27.976;2023-03-14T10:40:26;100607.66;;;7.48;77.93
5966;BME280;3009;43.224;27.976;2023-03-14T10:42:56;100597.16;;;7.57;77.57
5966;BME280;3009;43.224;27.976;2023-03-14T10:45:32;100597.06;;;7.67;77.37
5966;BME280;3009;43.224;27.976;2023-03-14T10:48:20;100596.84;;;7.88;77.44
5966;BME280;3009;43.224;27.976;2023-03-14T10:50:54;100589.84;;;7.92;76.79
5966;BME280;3009;43.224;27.976;2023-03-14T10:53:24;100586.34;;;7.96;77.48
5966;BME280;3009;43.224;27.976;2023-03-14T10:55:55;100576.72;;;7.95;78.79
5966;BME280;3009;43.224;27.976;2023-03-14T10:58:27;100565.81;;;8.16;75.96
5966;BME280;3009;43.224;27.976;2023-03-14T11:01:08;100569.25;;;8.16;73.76
5966;BME280;3009;43.224;27.976;2023-03-14T11:03:43;100561.16;;;8.03;74.41
5966;BME280;3009;43.224;27.976;2023-03-14T11:06:20;100556.88;;;8.02;75.72
5966;BME280;3009;43.224;27.976;2023-03-14T11:08:55;100551.38;;;8.17;75.13
5966;BME280;3009;43.224;27.976;2023-03-14T11:11:29;100550.44;;;8.08;74.56
5966;BME280;3009;43.224;27.976;2023-03-14T11:14:08;100545.41;;;8.01;74.11
5966;BME280;3009;43.224;27.976;2023-03-14T11:16:53;100533.72;;;7.97;75.12
5966;BME280;3009;43.224;27.976;2023-03-14T11:19:32;100523.78;;;8.03;75.88
5966;BME280;3009;43.224;27.976;2023-03-14T11:22:14;100523.34;;;7.71;74.25
5966;BME280;3009;43.224;27.976;2023-03-14T11:27:42;100503.25;;;7.79;76.32
5966;BME280;3009;43.224;27.976;2023-03-14T11:30:19;100502.84;;;7.67;75.75
5966;BME280;3009;43.224;27.976;2023-03-14T11:32:57;100490.97;;;7.78;76.91
5966;BME280;3009;43.224;27.976;2023-03-14T11:35:30;100491.94;;;7.87;75.90
5966;BME280;3009;43.224;27.976;2023-03-14T11:38:24;100486.44;;;7.78;77.30
5966;BME280;3009;43.224;27.976;2023-03-14T11:40:57;100482.91;;;7.83;76.85
5966;BME280;3009;43.224;27.976;2023-03-14T11:43:30;100480.88;;;7.94;76.58
5966;BME280;3009;43.224;27.976;2023-03-14T11:46:05;100470.50;;;7.73;76.51
5966;BME280;3009;43.224;27.976;2023-03-14T11:48:40;100465.66;;;7.75;76.67
5966;BME280;3009;43.224;27.976;2023-03-14T11:51:15;100460.56;;;7.79;76.76
5966;BME280;3009;43.224;27.976;2023-03-14T11:53:51;100464.00;;;7.79;76.63
5966;BME280;3009;43.224;27.976;2023-03-14T11:56:27;100453.44;;;7.69;75.27
5966;BME280;3009;43.224;27.976;2023-03-14T11:59:01;100452.66;;;7.69;76.30
5966;BME280;3009;43.224;27.976;2023-03-14T12:01:49;100448.19;;;7.83;77.25
5966;BME280;3009;43.224;27.976;2023-03-14T12:04:34;100440.84;;;7.75;78.91
5966;BME280;3009;43.224;27.976;2023-03-14T12:07:11;100436.44;;;7.84;77.89
5966;BME280;3009;43.224;27.976;2023-03-14T12:09:43;100431.44;;;7.58;75.51
5966;BME280;3009;43.224;27.976;2023-03-14T12:12:14;100426.91;;;7.35;76.03
5966;BME280;3009;43.224;27.976;2023-03-14T12:14:53;100424.53;;;7.33;76.92
5966;BME280;3009;43.224;27.976;2023-03-14T12:17:25;100418.72;;;7.50;77.60
5966;BME280;3009;43.224;27.976;2023-03-14T12:20:06;100407.22;;;7.31;75.96
5966;BME280;3009;43.224;27.976;2023-03-14T12:22:42;100405.28;;;7.36;76.32
5966;BME280;3009;43.224;27.976;2023-03-14T12:25:17;100398.72;;;7.28;77.30
5966;BME280;3009;43.224;27.976;2023-03-14T12:30:41;100395.47;;;7.07;79.88
5966;BME280;3009;43.224;27.976;2023-03-14T12:33:31;100390.31;;;7.16;82.24
5966;BME280;3009;43.224;27.976;2023-03-14T12:36:17;100387.16;;;7.38;81.90
5966;BME280;3009;43.224;27.976;2023-03-14T12:39:04;100383.84;;;7.22;79.06
5966;BME280;3009;43.224;27.976;2023-03-14T12:41:38;100381.19;;;6.98;77.99
5966;BME280;3009;43.224;27.976;2023-03-14T12:47:50;100378.06;;;7.15;79.11
5966;BME280;3009;43.224;27.976;2023-03-14T12:50:29;100379.72;;;7.35;79.80
5966;BME280;3009;43.224;27.976;2023-03-14T12:56:50;100370.97;;;7.30;80.88
5966;BME280;3009;43.224;27.976;2023-03-14T12:59:29;100359.09;;;7.41;81.02
5966;BME280;3009;43.224;27.976;2023-03-14T13:02:01;100357.28;;;7.36;80.64
5966;BME280;3009;43.224;27.976;2023-03-14T13:04:34;100357.00;;;7.38;80.88
5966;BME280;3009;43.224;27.976;2023-03-14T13:07:11;100343.59;;;7.43;81.01
5966;BME280;3009;43.224;27.976;2023-03-14T13:10:03;100345.56;;;7.56;80.79
5966;BME280;3009;43.224;27.976;2023-03-14T13:12:38;100338.19;;;7.05;80.54
5966;BME280;3009;43.224;27.976;2023-03-14T13:15:18;100335.41;;;7.15;81.35
5966;BME280;3009;43.224;27.976;2023-03-14T13:17:51;100332.63;;;7.25;81.56
5966;BME280;3009;43.224;27.976;2023-03-14T13:20:28;100325.09;;;7.27;81.72
5966;BME280;3009;43.224;27.976;2023-03-14T13:22:57;100325.69;;;7.24;81.03
5966;BME280;3009;43.224;27.976;2023-03-14T13:25:32;100332.41;;;7.22;81.21
5966;BME280;3009;43.224;27.976;2023-03-14T13:28:02;100327.50;;;7.29;82.20
5966;BME280;3009;43.224;27.976;2023-03-14T13:30:39;100317.19;;;7.22;82.24
5966;BME280;3009;43.224;27.976;2023-03-14T13:33:12;100322.63;;;7.12;82.94
5966;BME280;3009;43.224;27.976;2023-03-14T13:35:43;100312.72;;;7.18;82.39
5966;BME280;3009;43.224;27.976;2023-03-14T13:38:18;100304.09;;;7.02;82.69
5966;BME280;3009;43.224;27.976;2023-03-14T13:40:49;100298.84;;;6.97;84.02
5966;BME280;3009;43.224;27.976;2023-03-14T13:43:20;100287.78;;;7.08;83.94
5966;BME280;3009;43.224;27.976;2023-03-14T13:45:55;100290.06;;;7.15;82.92